createdAt,value
2017-12-14T00:00:39.022Z,98146.11
2017-12-14T00:03:06.464Z,98139.86
2017-12-14T00:05:33.941Z,98108.58
2017-12-14T00:08:01.403Z,98097.80
2017-12-14T00:10:34.768Z,98104.74
2017-12-14T00:13:02.230Z,98103.03
2017-12-14T00:15:29.707Z,98097.13
2017-12-14T00:17:57.151Z,98112.61
2017-12-14T00:20:24.621Z,98123.88
2017-12-14T00:22:52.141Z,98121.85
2017-12-14T00:25:19.048Z,98136.48
2017-12-14T00:27:47.437Z,98130.24
2017-12-14T00:30:14.910Z,98143.08
2017-12-14T00:32:42.359Z,98148.47
2017-12-14T00:35:09.803Z,98156.38
2017-12-14T00:37:37.285Z,98149.21
2017-12-14T00:40:04.736Z,98149.03
2017-12-14T00:42:32.200Z,98145.09
2017-12-14T00:44:59.639Z,98135.95
2017-12-14T00:47:27.205Z,98143.92
2017-12-14T00:49:54.666Z,98139.36
2017-12-14T00:52:22.144Z,98148.56
2017-12-14T00:54:49.612Z,98151.42
2017-12-14T00:57:17.074Z,98157.03
2017-12-14T00:59:44.526Z,98154.61
2017-12-14T01:02:12.009Z,98157.19
2017-12-14T01:04:39.461Z,98155.55
2017-12-14T01:07:06.909Z,98164.48
2017-12-14T01:09:34.380Z,98159.02
2017-12-14T01:12:01.820Z,98159.58
2017-12-14T01:14:29.310Z,98157.70
2017-12-14T01:16:56.761Z,98161.09
2017-12-14T01:19:24.238Z,98165.88
2017-12-14T01:21:51.674Z,98176.25
2017-12-14T01:24:19.145Z,98187.59
2017-12-14T01:26:46.601Z,98191.40
2017-12-14T01:29:14.069Z,98195.70
2017-12-14T01:31:41.514Z,98188.90
2017-12-14T01:34:08.989Z,98195.31
2017-12-14T01:36:42.446Z,98212.42
2017-12-14T01:39:09.906Z,98202.45
2017-12-14T01:41:37.337Z,98196.14
2017-12-14T01:44:04.794Z,98178.49
2017-12-14T01:46:32.227Z,98174.63
2017-12-14T01:48:59.690Z,98183.45
2017-12-14T01:51:27.123Z,98176.66
2017-12-14T01:53:54.549Z,98184.81
2017-12-14T01:56:21.998Z,98199.47
2017-12-14T01:58:49.430Z,98188.89
2017-12-14T02:01:16.893Z,98178.59
2017-12-14T02:03:44.340Z,98181.02
2017-12-14T02:06:11.798Z,98178.41
2017-12-14T02:08:39.238Z,98169.59
2017-12-14T02:11:06.704Z,98151.55
2017-12-14T02:13:34.157Z,98163.80
2017-12-14T02:16:01.620Z,98161.87
2017-12-14T02:18:29.049Z,98158.28
2017-12-14T02:20:56.489Z,98164.58
2017-12-14T02:23:23.949Z,98152.65
2017-12-14T02:25:51.448Z,98136.91
2017-12-14T02:28:18.898Z,98118.20
2017-12-14T02:30:46.336Z,98095.35
2017-12-14T02:33:13.787Z,98093.80
2017-12-14T02:35:41.233Z,98094.45
2017-12-14T02:38:08.766Z,98102.69
2017-12-14T02:40:36.194Z,98098.64
2017-12-14T02:43:03.655Z,98088.55
2017-12-14T02:45:31.090Z,98089.14
2017-12-14T02:47:58.547Z,98076.60
2017-12-14T02:50:25.979Z,98085.11
2017-12-14T02:52:53.404Z,98053.12
2017-12-14T02:55:20.932Z,98059.14
2017-12-14T02:57:48.366Z,98048.63
2017-12-14T03:00:15.967Z,98047.27
2017-12-14T03:02:43.407Z,98048.23
2017-12-14T03:05:10.858Z,98061.23
2017-12-14T03:07:38.285Z,98075.25
2017-12-14T03:10:05.738Z,98096.35
2017-12-14T03:12:33.177Z,98113.34
2017-12-14T03:15:00.675Z,98131.02
2017-12-14T03:17:28.101Z,98147.17
2017-12-14T03:19:55.599Z,98173.92
2017-12-14T03:22:23.039Z,98205.47
2017-12-14T03:24:50.489Z,98205.02
2017-12-14T03:27:17.918Z,98176.63
2017-12-14T03:29:45.385Z,98165.38
2017-12-14T03:32:12.819Z,98171.81
2017-12-14T03:34:40.397Z,98154.47
2017-12-14T03:37:07.830Z,98156.50
2017-12-14T03:39:35.263Z,98148.37
2017-12-14T03:42:02.773Z,98175.06
2017-12-14T03:44:30.162Z,98177.20
2017-12-14T03:46:57.647Z,98192.87
2017-12-14T03:49:25.078Z,98191.39
2017-12-14T03:51:52.539Z,98209.13
2017-12-14T03:54:19.969Z,98212.63
2017-12-14T03:56:47.434Z,98220.30
2017-12-14T03:59:14.866Z,98225.11
2017-12-14T04:01:42.318Z,98239.13
2017-12-14T04:04:09.852Z,98225.01
2017-12-14T04:06:37.316Z,98229.41
2017-12-14T04:09:04.760Z,98229.88
2017-12-14T04:11:32.240Z,98226.36
2017-12-14T04:13:59.677Z,98228.00
2017-12-14T04:16:27.138Z,98235.67
2017-12-14T04:18:54.576Z,98243.08
2017-12-14T04:21:22.001Z,98253.03
2017-12-14T04:23:49.521Z,98268.31
2017-12-14T04:26:16.961Z,98266.99
2017-12-14T04:28:44.523Z,98268.80
2017-12-14T04:31:11.959Z,98279.97
2017-12-14T04:33:39.409Z,98280.85
2017-12-14T04:36:06.851Z,98293.50
2017-12-14T04:38:34.302Z,98294.63
2017-12-14T04:41:01.735Z,98314.27
2017-12-14T04:43:29.291Z,98321.73
2017-12-14T04:45:56.726Z,98338.42
2017-12-14T04:48:24.178Z,98365.56
2017-12-14T04:50:51.611Z,98368.09
2017-12-14T04:53:19.067Z,98348.50
2017-12-14T04:55:46.533Z,98359.03
2017-12-14T04:58:13.981Z,98361.27
2017-12-14T05:00:41.432Z,98372.01
2017-12-14T05:03:08.907Z,98376.34
2017-12-14T05:05:36.366Z,98362.63
2017-12-14T05:08:03.793Z,98348.20
2017-12-14T05:10:31.259Z,98358.98
2017-12-14T05:12:58.735Z,98351.92
2017-12-14T05:15:26.196Z,98350.19
2017-12-14T05:17:53.635Z,98356.80
2017-12-14T05:20:21.096Z,98353.98
2017-12-14T05:22:48.600Z,98360.35
2017-12-14T05:25:16.073Z,98355.30
2017-12-14T05:27:43.497Z,98359.19
2017-12-14T05:30:10.950Z,98385.77
2017-12-14T05:32:38.381Z,98374.92
2017-12-14T05:35:05.829Z,98371.92
2017-12-14T05:37:33.282Z,98374.47
2017-12-14T05:40:00.710Z,98382.06
2017-12-14T05:42:28.184Z,98385.37
2017-12-14T05:44:55.626Z,98383.31
2017-12-14T05:47:23.078Z,98393.27
2017-12-14T05:49:50.515Z,98400.28
2017-12-14T05:52:17.972Z,98403.31
2017-12-14T05:54:45.408Z,98417.16
2017-12-14T05:57:12.874Z,98427.84
2017-12-14T05:59:40.302Z,98422.02
2017-12-14T06:02:07.772Z,98429.06
2017-12-14T06:04:35.224Z,98434.67
2017-12-14T06:07:02.681Z,98444.06
2017-12-14T06:09:30.132Z,98436.75
2017-12-14T06:11:57.558Z,98436.48
2017-12-14T06:14:25.034Z,98462.84
2017-12-14T06:16:52.498Z,98461.89
2017-12-14T06:19:20.005Z,98466.59
2017-12-14T06:21:47.451Z,98472.92
2017-12-14T06:24:15.173Z,98481.19
2017-12-14T06:26:42.636Z,98484.80
2017-12-14T06:29:10.085Z,98473.12
2017-12-14T06:31:37.520Z,98487.95
2017-12-14T06:34:05.045Z,98503.44
2017-12-14T06:36:32.480Z,98491.41
2017-12-14T06:38:59.947Z,98487.32
2017-12-14T06:41:27.382Z,98493.98
2017-12-14T06:43:54.825Z,98495.05
2017-12-14T06:46:22.258Z,98509.42
2017-12-14T06:48:49.724Z,98518.06
2017-12-14T06:51:17.162Z,98515.86
2017-12-14T06:53:44.588Z,98523.73
2017-12-14T06:56:12.035Z,98530.23
2017-12-14T06:58:39.466Z,98548.06
2017-12-14T07:01:06.927Z,98548.23
2017-12-14T07:03:34.370Z,98548.98
2017-12-14T07:06:02.672Z,98561.63
2017-12-14T07:08:30.164Z,98563.92
2017-12-14T07:10:57.660Z,98576.98
2017-12-14T07:13:26.364Z,98579.88
2017-12-14T07:15:54.180Z,98575.52
2017-12-14T07:18:21.681Z,98588.84
2017-12-14T07:20:49.138Z,98583.69
2017-12-14T07:23:16.574Z,98578.70
2017-12-14T07:25:44.046Z,98581.87
2017-12-14T07:28:11.487Z,98582.18
2017-12-14T07:30:38.951Z,98584.58
2017-12-14T07:33:06.385Z,98586.36
2017-12-14T07:35:33.843Z,98586.77
2017-12-14T07:38:01.273Z,98594.48
2017-12-14T07:40:28.739Z,98610.85
2017-12-14T07:43:07.944Z,98605.28
2017-12-14T07:49:03.356Z,98591.63
2017-12-14T07:51:30.835Z,98612.67
2017-12-14T07:53:58.266Z,98603.12
2017-12-14T07:56:25.714Z,98608.15
2017-12-14T07:58:53.142Z,98613.86
2017-12-14T08:01:20.583Z,98620.17
2017-12-14T08:03:48.040Z,98629.86
2017-12-14T08:06:15.480Z,98625.08
2017-12-14T08:08:42.938Z,98629.19
2017-12-14T08:11:10.385Z,98640.59
2017-12-14T08:13:37.837Z,98643.93
2017-12-14T08:16:05.272Z,98651.08
2017-12-14T08:18:32.731Z,98661.43
2017-12-14T08:21:00.162Z,98654.29
2017-12-14T08:23:27.636Z,98661.51
2017-12-14T08:25:55.069Z,98666.04
2017-12-14T08:28:22.532Z,98659.22
2017-12-14T08:30:49.967Z,98669.88
2017-12-14T08:33:17.396Z,98662.23
2017-12-14T08:35:44.849Z,98665.61
2017-12-14T08:38:12.482Z,98670.17
2017-12-14T08:40:39.929Z,98668.73
2017-12-14T08:43:07.378Z,98663.41
2017-12-14T08:45:34.835Z,98655.78
2017-12-14T08:48:02.267Z,98664.57
2017-12-14T08:50:29.737Z,98666.03
2017-12-14T08:52:57.224Z,98667.44
2017-12-14T08:55:24.670Z,98671.11
2017-12-14T08:57:52.101Z,98674.50
2017-12-14T09:00:19.588Z,98679.44
2017-12-14T09:02:47.024Z,98681.28
2017-12-14T09:05:14.451Z,98687.60
2017-12-14T09:07:41.898Z,98690.48
2017-12-14T09:10:09.335Z,98673.13
2017-12-14T09:12:36.795Z,98675.48
2017-12-14T09:15:04.231Z,98673.41
2017-12-14T09:17:31.784Z,98672.00
2017-12-14T09:19:59.238Z,98678.00
2017-12-14T09:22:26.686Z,98698.99
2017-12-14T09:24:54.127Z,98707.92
2017-12-14T09:27:21.607Z,98702.67
2017-12-14T09:29:49.052Z,98712.20
2017-12-14T09:32:16.473Z,98714.64
2017-12-14T09:34:43.921Z,98714.06
2017-12-14T09:37:11.363Z,98715.38
2017-12-14T09:39:38.845Z,98705.94
2017-12-14T09:42:06.285Z,98709.86
2017-12-14T09:44:33.759Z,98707.74
2017-12-14T09:47:01.206Z,98705.16
2017-12-14T09:49:28.653Z,98710.38
2017-12-14T09:51:56.090Z,98701.93
2017-12-14T09:54:23.559Z,98703.25
2017-12-14T09:56:51.014Z,98704.80
2017-12-14T09:59:18.504Z,98702.46
2017-12-14T10:01:45.938Z,98719.95
2017-12-14T10:04:13.452Z,98721.72
2017-12-14T10:06:40.883Z,98710.23
2017-12-14T10:09:08.334Z,98701.66
2017-12-14T10:11:35.777Z,98701.92
2017-12-14T10:14:03.243Z,98709.45
2017-12-14T10:16:30.691Z,98697.89
2017-12-14T10:18:58.141Z,98700.34
2017-12-14T10:21:25.611Z,98694.63
2017-12-14T10:23:53.617Z,98684.52
2017-12-14T10:26:21.107Z,98687.33
2017-12-14T10:28:48.598Z,98675.47
2017-12-14T10:31:16.064Z,98682.33
2017-12-14T10:33:43.758Z,98670.20
2017-12-14T10:36:11.218Z,98678.86
2017-12-14T10:38:38.667Z,98666.02
2017-12-14T10:41:06.233Z,98680.00
2017-12-14T10:43:33.666Z,98669.89
2017-12-14T10:46:01.224Z,98671.02
2017-12-14T10:48:28.676Z,98668.80
2017-12-14T10:50:56.164Z,98662.59
2017-12-14T10:53:23.809Z,98665.00
2017-12-14T10:55:51.290Z,98668.07
2017-12-14T10:58:18.792Z,98664.41
2017-12-14T11:00:51.771Z,98661.70
2017-12-14T11:03:19.239Z,98663.38
2017-12-14T11:05:46.736Z,98648.65
2017-12-14T11:08:14.284Z,98646.83
2017-12-14T11:10:41.751Z,98635.70
2017-12-14T11:13:09.215Z,98632.97
2017-12-14T11:15:36.664Z,98646.06
2017-12-14T11:18:04.132Z,98644.09
2017-12-14T11:20:31.583Z,98643.14
2017-12-14T11:22:59.041Z,98643.76
2017-12-14T11:25:26.479Z,98647.19
2017-12-14T11:27:53.944Z,98634.51
2017-12-14T11:30:21.387Z,98637.45
2017-12-14T11:32:48.842Z,98636.92
2017-12-14T11:35:16.282Z,98634.20
2017-12-14T11:37:43.749Z,98638.91
2017-12-14T11:40:11.182Z,98641.61
2017-12-14T11:42:38.628Z,98631.11
2017-12-14T11:45:06.095Z,98636.60
2017-12-14T11:47:33.542Z,98626.39
2017-12-14T11:50:01.038Z,98622.92
2017-12-14T11:52:28.509Z,98629.02
2017-12-14T11:54:55.975Z,98629.59
2017-12-14T11:57:23.431Z,98625.72
2017-12-14T11:59:50.895Z,98625.27
2017-12-14T12:02:18.361Z,98619.78
2017-12-14T12:04:45.828Z,98614.43
2017-12-14T12:07:13.271Z,98622.83
2017-12-14T12:09:40.725Z,98618.05
2017-12-14T12:12:10.046Z,98608.30
2017-12-14T12:14:37.555Z,98604.44
2017-12-14T12:17:05.011Z,98600.19
2017-12-14T12:19:32.561Z,98602.28
2017-12-14T12:21:59.991Z,98601.19
2017-12-14T12:24:27.467Z,98592.16
2017-12-14T12:26:54.974Z,98599.88
2017-12-14T12:29:22.422Z,98600.07
2017-12-14T12:31:49.882Z,98597.33
2017-12-14T12:34:17.323Z,98598.17
2017-12-14T12:36:44.782Z,98588.02
2017-12-14T12:39:12.229Z,98585.02
2017-12-14T12:41:39.682Z,98581.02
2017-12-14T12:44:07.141Z,98567.28
2017-12-14T12:46:34.606Z,98570.45
2017-12-14T12:49:02.042Z,98571.02
2017-12-14T12:51:29.607Z,98573.98
2017-12-14T12:53:57.042Z,98569.81
2017-12-14T12:56:24.508Z,98573.79
2017-12-14T12:58:51.951Z,98573.20
2017-12-14T13:01:19.421Z,98571.81
2017-12-14T13:03:46.850Z,98580.42
2017-12-14T13:06:14.305Z,98572.73
2017-12-14T13:08:41.763Z,98564.65
2017-12-14T13:11:09.209Z,98564.98
2017-12-14T13:13:36.714Z,98566.76
2017-12-14T13:16:04.155Z,98567.45
2017-12-14T13:18:31.608Z,98574.58
2017-12-14T13:20:59.042Z,98563.72
2017-12-14T13:23:26.490Z,98566.45
2017-12-14T13:25:53.923Z,98549.90
2017-12-14T13:28:21.429Z,98553.61
2017-12-14T13:30:48.838Z,98554.78
2017-12-14T13:33:16.371Z,98535.68
2017-12-14T13:35:43.813Z,98550.39
2017-12-14T13:38:11.279Z,98535.11
2017-12-14T13:40:38.724Z,98542.89
2017-12-14T13:43:06.176Z,98539.86
2017-12-14T13:45:33.639Z,98538.31
2017-12-14T13:48:01.119Z,98547.13
2017-12-14T13:50:28.585Z,98548.54
2017-12-14T13:52:56.018Z,98540.39
2017-12-14T13:55:23.474Z,98535.93
2017-12-14T13:57:50.920Z,98557.94
2017-12-14T14:00:18.379Z,98548.59
2017-12-14T14:02:45.813Z,98545.22
2017-12-14T14:05:13.275Z,98546.50
2017-12-14T14:07:40.711Z,98535.16
2017-12-14T14:10:08.185Z,98535.70
2017-12-14T14:12:35.679Z,98530.84
2017-12-14T14:15:03.133Z,98524.45
2017-12-14T14:17:30.567Z,98533.94
2017-12-14T14:19:58.028Z,98527.95
2017-12-14T14:22:25.461Z,98528.54
2017-12-14T14:24:52.928Z,98521.05
2017-12-14T14:27:20.372Z,98520.23
2017-12-14T14:29:47.855Z,98515.05
2017-12-14T14:32:15.296Z,98520.80
2017-12-14T14:34:43.039Z,98520.11
2017-12-14T14:37:10.603Z,98512.12
2017-12-14T14:39:38.014Z,98512.72
2017-12-14T14:42:05.487Z,98503.36
2017-12-14T14:44:32.918Z,98507.06
2017-12-14T14:47:00.392Z,98495.64
2017-12-14T14:49:27.824Z,98495.78
2017-12-14T14:51:55.285Z,98499.92
2017-12-14T14:54:22.722Z,98495.14
2017-12-14T14:56:50.174Z,98496.51
2017-12-14T14:59:17.604Z,98494.91
2017-12-14T15:01:45.108Z,98498.98
2017-12-14T15:04:12.546Z,98495.05
2017-12-14T15:06:40.003Z,98488.14
2017-12-14T15:09:07.443Z,98493.11
2017-12-14T15:11:34.903Z,98488.58
2017-12-14T15:14:02.375Z,98495.91
2017-12-14T15:16:29.858Z,98488.70
2017-12-14T15:18:57.300Z,98493.94
2017-12-14T15:21:24.725Z,98496.67
2017-12-14T15:23:52.192Z,98494.62
2017-12-14T15:26:19.671Z,98494.00
2017-12-14T15:28:47.128Z,98498.48
2017-12-14T15:31:14.562Z,98487.81
2017-12-14T15:33:42.013Z,98487.88
2017-12-14T15:36:09.462Z,98470.95
2017-12-14T15:38:36.921Z,98472.95
2017-12-14T15:41:04.369Z,98461.41
2017-12-14T15:43:31.831Z,98464.90
2017-12-14T15:45:59.279Z,98462.21
2017-12-14T15:48:26.747Z,98448.14
2017-12-14T15:50:54.197Z,98438.80
2017-12-14T15:53:21.666Z,98444.27
2017-12-14T15:55:49.149Z,98436.97
2017-12-14T15:58:16.592Z,98438.03
2017-12-14T16:00:44.067Z,98428.42
2017-12-14T16:03:11.512Z,98433.75
2017-12-14T16:05:38.983Z,98428.84
2017-12-14T16:08:06.446Z,98421.44
2017-12-14T16:10:33.906Z,98427.81
2017-12-14T16:13:01.442Z,98422.36
2017-12-14T16:15:28.976Z,98416.70
2017-12-14T16:17:56.458Z,98416.05
2017-12-14T16:20:24.028Z,98413.97
2017-12-14T16:22:51.466Z,98410.76
2017-12-14T16:25:18.927Z,98411.70
2017-12-14T16:27:46.368Z,98409.32
2017-12-14T16:30:13.991Z,98413.48
2017-12-14T16:32:41.462Z,98410.98
2017-12-14T16:35:09.140Z,98403.46
2017-12-14T16:37:36.578Z,98407.94
2017-12-14T16:40:04.036Z,98395.55
2017-12-14T16:42:31.472Z,98397.72
2017-12-14T16:44:58.922Z,98390.08
2017-12-14T16:47:26.487Z,98380.48
2017-12-14T16:49:53.921Z,98378.85
2017-12-14T16:52:21.422Z,98375.02
2017-12-14T16:54:48.862Z,98371.66
2017-12-14T16:57:16.309Z,98366.86
2017-12-14T16:59:43.827Z,98364.93
2017-12-14T17:02:11.274Z,98361.78
2017-12-14T17:04:38.718Z,98351.94
2017-12-14T17:07:06.227Z,98351.59
2017-12-14T17:09:33.667Z,98345.63
2017-12-14T17:12:01.119Z,98336.11
2017-12-14T17:14:28.555Z,98334.80
2017-12-14T17:16:56.015Z,98334.56
2017-12-14T17:19:23.564Z,98335.23
2017-12-14T17:21:51.027Z,98336.51
2017-12-14T17:24:18.467Z,98343.64
2017-12-14T17:26:45.937Z,98340.23
2017-12-14T17:29:13.379Z,98340.22
2017-12-14T17:31:40.903Z,98330.30
2017-12-14T17:34:08.363Z,98340.25
2017-12-14T17:36:35.809Z,98332.67
2017-12-14T17:39:03.395Z,98328.05
2017-12-14T17:41:30.892Z,98329.92
2017-12-14T17:43:58.343Z,98320.16
2017-12-14T17:46:25.835Z,98317.80
2017-12-14T17:48:53.329Z,98316.52
2017-12-14T17:51:20.780Z,98301.58
2017-12-14T17:53:48.234Z,98291.98
2017-12-14T17:56:16.497Z,98300.84
2017-12-14T17:58:43.950Z,98291.48
2017-12-14T18:01:18.295Z,98288.69
2017-12-14T18:03:46.081Z,98291.84
2017-12-14T18:06:13.519Z,98293.77
2017-12-14T18:08:40.982Z,98289.51
2017-12-14T18:11:08.434Z,98301.31
2017-12-14T18:13:35.882Z,98288.38
2017-12-14T18:16:03.352Z,98293.20
2017-12-14T18:18:30.795Z,98288.77
2017-12-14T18:20:58.259Z,98286.28
2017-12-14T18:23:25.702Z,98292.70
2017-12-14T18:25:53.268Z,98287.95
2017-12-14T18:28:20.704Z,98272.95
2017-12-14T18:30:48.162Z,98273.93
2017-12-14T18:33:15.684Z,98266.55
2017-12-14T18:35:43.136Z,98255.44
2017-12-14T18:38:10.679Z,98243.75
2017-12-14T18:40:38.139Z,98240.86
2017-12-14T18:43:05.601Z,98242.27
2017-12-14T18:45:33.088Z,98231.09
2017-12-14T18:48:00.566Z,98238.17
2017-12-14T18:50:28.035Z,98241.99
2017-12-14T18:52:55.572Z,98248.30
2017-12-14T18:55:23.143Z,98257.27
2017-12-14T18:57:50.655Z,98261.21
2017-12-14T19:00:18.099Z,98268.22
2017-12-14T19:02:45.567Z,98273.97
2017-12-14T19:05:13.073Z,98280.39
2017-12-14T19:07:40.590Z,98272.86
2017-12-14T19:10:08.040Z,98269.11
2017-12-14T19:12:35.759Z,98258.88
2017-12-14T19:15:03.216Z,98259.28
2017-12-14T19:17:30.680Z,98253.98
2017-12-14T19:19:58.124Z,98257.17
2017-12-14T19:22:25.581Z,98247.02
2017-12-14T19:24:53.108Z,98234.25
2017-12-14T19:27:23.791Z,98229.59
2017-12-14T19:29:51.275Z,98229.14
2017-12-14T19:32:18.743Z,98228.00
2017-12-14T19:34:46.199Z,98219.71
2017-12-14T19:37:13.686Z,98209.35
2017-12-14T19:39:41.155Z,98207.15
2017-12-14T19:42:08.664Z,98202.77
2017-12-14T19:44:36.132Z,98215.39
2017-12-14T19:47:03.637Z,98227.48
2017-12-14T19:49:31.088Z,98214.41
2017-12-14T19:51:58.527Z,98223.83
2017-12-14T19:54:25.989Z,98214.63
2017-12-14T19:56:53.450Z,98210.63
2017-12-14T19:59:20.907Z,98204.88
2017-12-14T20:01:48.415Z,98185.36
2017-12-14T20:04:15.871Z,98186.74
2017-12-14T20:06:43.366Z,98193.63
2017-12-14T20:09:10.827Z,98195.34
2017-12-14T20:11:38.346Z,98186.48
2017-12-14T20:14:05.810Z,98186.91
2017-12-14T20:16:33.765Z,98194.52
2017-12-14T20:19:01.503Z,98197.29
2017-12-14T20:21:28.942Z,98202.06
2017-12-14T20:23:56.402Z,98200.25
2017-12-14T20:26:23.835Z,98198.61
2017-12-14T20:28:51.299Z,98196.47
2017-12-14T20:31:18.750Z,98195.74
2017-12-14T20:33:46.215Z,98202.35
2017-12-14T20:36:13.680Z,98196.89
2017-12-14T20:38:41.120Z,98191.03
2017-12-14T20:41:08.570Z,98191.03
2017-12-14T20:43:36.002Z,98183.99
2017-12-14T20:46:03.568Z,98178.86
2017-12-14T20:48:31.022Z,98172.95
2017-12-14T20:50:58.579Z,98180.73
2017-12-14T20:53:26.014Z,98179.09
2017-12-14T20:55:53.509Z,98181.66
2017-12-14T20:58:20.958Z,98181.63
2017-12-14T21:00:48.426Z,98176.39
2017-12-14T21:03:15.894Z,98169.57
2017-12-14T21:05:43.371Z,98159.61
2017-12-14T21:08:10.825Z,98155.52
2017-12-14T21:10:38.321Z,98160.00
2017-12-14T21:13:05.789Z,98154.16
2017-12-14T21:15:33.251Z,98168.12
2017-12-14T21:18:00.711Z,98177.69
2017-12-14T21:20:28.176Z,98178.75
2017-12-14T21:22:55.617Z,98170.23
2017-12-14T21:25:23.070Z,98170.37
2017-12-14T21:27:50.527Z,98166.02
2017-12-14T21:30:17.992Z,98154.70
2017-12-14T21:32:45.476Z,98150.95
2017-12-14T21:35:12.939Z,98138.57
2017-12-14T21:37:40.419Z,98136.81
2017-12-14T21:40:07.906Z,98132.17
2017-12-14T21:42:35.366Z,98127.70
2017-12-14T21:45:02.818Z,98130.38
2017-12-14T21:47:30.308Z,98128.24
2017-12-14T21:49:57.787Z,98120.97
2017-12-14T21:52:25.251Z,98125.44
2017-12-14T21:54:52.703Z,98128.86
2017-12-14T21:57:20.174Z,98116.16
2017-12-14T21:59:47.611Z,98105.59
2017-12-14T22:02:15.115Z,98090.95
2017-12-14T22:04:42.567Z,98088.53
2017-12-14T22:07:10.028Z,98067.92
2017-12-14T22:09:37.517Z,98061.81
2017-12-14T22:12:05.410Z,98063.00
2017-12-14T22:14:32.939Z,98058.47
2017-12-14T22:17:00.365Z,98054.77
2017-12-14T22:19:27.920Z,98054.17
2017-12-14T22:21:55.361Z,98059.59
2017-12-14T22:24:22.823Z,98064.47
2017-12-14T22:26:50.255Z,98076.53
2017-12-14T22:29:17.731Z,98085.87
2017-12-14T22:31:45.160Z,98089.82
2017-12-14T22:34:12.617Z,98096.25
2017-12-14T22:36:40.115Z,98099.97
2017-12-14T22:39:07.572Z,98096.70
2017-12-14T22:41:35.011Z,98103.90
2017-12-14T22:44:02.466Z,98104.70
2017-12-14T22:46:29.907Z,98089.80
2017-12-14T22:48:57.386Z,98073.13
2017-12-14T22:51:24.822Z,98068.75
2017-12-14T22:53:52.282Z,98057.59
2017-12-14T22:56:19.716Z,98057.71
2017-12-14T22:58:47.166Z,98057.23
2017-12-14T23:01:14.607Z,98057.06
2017-12-14T23:03:42.070Z,98062.41
2017-12-14T23:06:09.508Z,98057.02
2017-12-14T23:08:36.942Z,98052.78
2017-12-14T23:11:04.404Z,98050.24
2017-12-14T23:13:31.838Z,98046.59
2017-12-14T23:15:59.299Z,98032.50
2017-12-14T23:18:26.728Z,98028.33
2017-12-14T23:20:54.183Z,98027.63
2017-12-14T23:23:21.618Z,98029.66
2017-12-14T23:25:49.713Z,98029.97
2017-12-14T23:28:17.141Z,98028.36
2017-12-14T23:30:44.643Z,98024.59
2017-12-14T23:33:12.086Z,98026.69
2017-12-14T23:35:39.536Z,98021.17
2017-12-14T23:38:06.966Z,98013.17
2017-12-14T23:40:34.442Z,98015.31
2017-12-14T23:43:01.902Z,98009.52
2017-12-14T23:45:29.375Z,98005.43
2017-12-14T23:47:56.827Z,98005.39
2017-12-14T23:50:24.292Z,98001.80
2017-12-14T23:52:51.728Z,98002.52
2017-12-14T23:55:19.240Z,98006.19
2017-12-14T23:57:46.701Z,98003.92
